• Join FlightAware (Why Join?)
  • Login
  • US Flag 
12:52AM EST


 

Airport Tracker/Info


-or-


 

Live Flight TrackerFlight Track Log ✈ N867DS ✈ 20-Jul-2014 ✈ KVNC - F45

Flight Track Log - Related Links

Times and Time Zones

All times are in EDT time to prevent confusion due to time zone crossing. See the N867DS flight status page for this flight to view local times or setup timezone preferences in your user account.

Time Position Orientation Groundspeed Altitude Reporting Facility
EDT Latitude Longitude Course Direction KTS MPH feet Rate Location/Type
09:49PM 27.0500 -82.3333 105° East 73 84 3,500  Level Tampa TRACON
09:50PM 27.0425 -82.3019 105° East 77 89 3,600  Climbing Miami Center
09:51PM 27.0400 -82.2631 94° East 98 113 3,600 -60 Level Miami Center
09:52PM 27.0311 -82.2203 103° East 120 138 3,500 -60 Descending Miami Center
09:53PM 27.0203 -82.1803 107° East 133 153 3,500  Level Miami Center
09:54PM 27.0108 -82.1422 106° East 133 153 3,500  Level Miami Center
09:55PM 27.0008 -82.1014 105° East 133 153 3,500  Level Miami Center
09:56PM 26.9911 -82.0606 105° East 130 150 3,500  Level Miami Center
09:57PM 26.9844 -82.0214 101° East 130 150 3,500  Level Miami Center
09:58PM 26.9764 -81.9819 103° East 130 150 3,500  Level Miami Center
09:59PM 26.9669 -81.9394 104° East 131 151 3,500  Level Miami Center
10:00PM 26.9542 -81.8997 110° East 132 152 3,500  Level Miami Center
10:01PM 26.9436 -81.8594 106° East 136 157 3,500  Level Miami Center
10:02PM 26.9325 -81.8200 108° East 136 157 3,500  Level Miami Center
10:03PM 26.9208 -81.7767 107° East 136 157 3,500  Level Miami Center
10:04PM 26.9086 -81.7369 109° East 136 157 3,500  Level Miami Center
10:05PM 26.8969 -81.6969 108° East 136 157 3,500  Level Miami Center
10:06PM 26.8892 -81.6564 102° East 136 157 3,500  Level Miami Center
10:07PM 26.8789 -81.6142 105° East 133 153 3,600 240 Climbing Miami Center
10:08PM 26.8731 -81.5803 101° East 112 129 4,100 480 Climbing Miami Center
10:09PM 26.8692 -81.5492 98° East 106 122 4,600 420 Climbing Miami Center
10:10PM 26.8644 -81.5181 100° East 105 121 5,000 420 Climbing Miami Center
10:11PM 26.8575 -81.4825 102° East 107 123 5,500 240 Climbing Miami Center
10:12PM 26.8514 -81.4439 100° East 127 146 5,500  Level Miami Center
10:13PM 26.8450 -81.4025 100° East 136 157 5,500  Level Miami Center
10:14PM 26.8375 -81.3558 100° East 138 159 5,500  Level Miami Center
10:15PM 26.8269 -81.3156 106° East 138 159 5,500  Level Miami Center
10:16PM 26.8161 -81.2739 106° East 139 160 5,500  Level Miami Center
10:17PM 26.8050 -81.2322 107° East 141 162 5,500  Level Miami Center
10:18PM 26.7919 -81.1886 109° East 139 160 5,500  Level Miami Center
10:19PM 26.7794 -81.1511 110° East 132 152 5,500  Level Miami Center
10:20PM 26.7667 -81.1108 110° East 137 158 5,500  Level Miami Center
10:21PM 26.7586 -81.0703 103° East 139 160 5,500  Level Miami Center
10:22PM 26.7503 -81.0264 102° East 139 160 5,500  Level Miami Center
10:23PM 26.7400 -80.9828 105° East 139 160 5,500  Level Miami Center
10:24PM 26.7339 -80.9381 99° East 139 160 5,500  Level Miami Center
10:25PM 26.7278 -80.8972 100° East 139 160 5,500  Level Miami Center
10:26PM 26.7258 -80.8511 93° East 140 161 5,500  Level Miami Center
10:27PM 26.7289 -80.8075 86° East 141 162 5,500  Level Miami Center
10:28PM 26.7356 -80.7644 80° East 139 160 5,500  Level Miami Center
10:29PM 26.7442 -80.7225 77° East 135 155 5,500  Level Miami Center
10:30PM 26.7522 -80.6814 78° East 137 158 5,500  Level Miami Center
10:31PM 26.7611 -80.6403 76° East 136 157 5,500  Level Miami Center
10:32PM 26.7697 -80.5956 78° East 137 158 5,500  Level Miami Center
10:33PM 26.7786 -80.5550 76° East 136 157 5,500 -60 Level Miami Center
10:34PM 26.7867 -80.5142 78° East 136 157 5,400 -300 Descending Miami Center
10:35PM 26.7947 -80.4758 77° East 134 154 5,000 -360 Descending Miami Center
10:36PM 26.8033 -80.4336 77° East 131 151 4,700 -300 Descending Miami Center
10:38PM 26.8193 -80.3855 85° East  Level FlightAware Approximate
10:45PM 26.8333 -80.2167 85° East  Level FlightAware Approximate
10:46PM 26.8459 -80.2223 338° Northwest  Level Estimated
10:47PM 26.8459 -80.2223 85° East  Level Estimated
10:48PM 26.8459 -80.2223 North  Level Estimated
10:49PM 26.8459 -80.2223 85° East  Level Estimated